Time;durP1;ratioP1;P1;durP2;ratioP2;P2;SDS_P1;SDS_P2;PMS_P1;PMS_P2;Temp;Humidity;BMP_temperature;BMP_pressure;BME280_temperature;BME280_humidity;BME280_pressure;Samples;Min_cycle;Max_cycle;Signal;HPM_P1;HPM_P2
2023/07/08 04:22:32;;;;;;;12.65;5.97;;;;;;;18.90;77.24;100201.63;5089519;28;20370;-61
2023/07/08 04:24:57;;;;;;;13.73;5.82;;;;;;;19.03;76.04;100198.72;5089583;28;20040;-63
2023/07/08 04:27:23;;;;;;;10.38;4.43;;;;;;;19.09;76.31;100203.22;5089359;28;20068;-63
2023/07/08 04:29:48;;;;;;;10.38;4.70;;;;;;;19.15;74.83;100196.88;5089093;28;20043;-62
2023/07/08 04:32:13;;;;;;;14.88;5.40;;;;;;;19.22;74.53;100200.31;5089484;28;20480;-63
2023/07/08 04:34:39;;;;;;;12.82;5.10;;;;;;;19.28;76.69;100197.75;5089359;28;20533;-63
2023/07/08 04:37:04;;;;;;;15.52;6.47;;;;;;;19.36;75.77;100205.50;5089239;28;20143;-63
2023/07/08 04:39:31;;;;;;;14.00;5.68;;;;;;;19.43;76.57;100219.72;5089032;28;20036;-64
2023/07/08 04:41:56;;;;;;;13.57;5.63;;;;;;;19.49;74.57;100216.09;5089163;28;20094;-63
2023/07/08 04:44:22;;;;;;;13.73;5.10;;;;;;;19.56;73.69;100219.53;5089146;28;20032;-63
2023/07/08 04:46:57;;;;;;;12.80;5.65;;;;;;;19.65;74.03;100233.56;5089023;28;20032;-63
2023/07/08 04:49:23;;;;;;;13.50;5.50;;;;;;;19.70;67.50;100225.59;5089023;28;20374;-62
2023/07/08 04:51:51;;;;;;;13.57;6.40;;;;;;;19.83;66.37;100254.25;5089024;28;20028;-62
2023/07/08 04:54:16;;;;;;;;;;;;;;;19.90;65.58;100255.78;5089425;28;20047;-64
2023/07/08 04:56:44;;;;;;;11.70;5.70;;;;;;;20.01;67.69;100276.56;5088812;28;19916;-63
2023/07/08 04:59:13;;;;;;;11.80;5.65;;;;;;;20.14;67.04;100297.16;5088506;28;20082;-63
2023/07/08 05:01:38;;;;;;;10.65;4.85;;;;;;;20.19;67.00;100289.19;5088718;28;20036;-64
2023/07/08 05:04:07;;;;;;;11.68;5.20;;;;;;;20.24;66.56;100297.41;5087484;28;20028;-64
2023/07/08 05:06:34;;;;;;;11.95;6.07;;;;;;;20.32;65.88;100325.97;5088692;28;20092;-62
2023/07/08 05:09:00;;;;;;;12.27;5.67;;;;;;;20.33;65.67;100319.50;5088398;28;20047;-62
2023/07/08 05:11:26;;;;;;;11.35;5.43;;;;;;;20.46;65.22;100337.41;5088624;28;20295;-63
2023/07/08 05:13:52;;;;;;;10.93;5.35;;;;;;;20.50;65.07;100330.47;5088576;28;20392;-63
2023/07/08 05:16:18;;;;;;;12.80;5.00;;;;;;;20.48;64.74;100335.31;5088469;28;20036;-64
2023/07/08 05:18:45;;;;;;;15.38;5.80;;;;;;;20.51;64.80;100324.00;5088286;28;20044;-62
2023/07/08 05:21:10;;;;;;;9.98;5.47;;;;;;;20.61;64.57;100328.84;5088441;28;20076;-55
2023/07/08 05:23:36;;;;;;;10.25;4.38;;;;;;;20.69;64.86;100342.00;5088461;28;20056;-56
2023/07/08 05:26:03;;;;;;;12.82;6.13;;;;;;;20.79;65.86;100337.59;5088197;28;20556;-53
2023/07/08 05:28:28;;;;;;;15.48;6.03;;;;;;;20.84;65.49;100334.19;5088103;28;20040;-54
2023/07/08 05:30:57;;;;;;;11.43;5.10;;;;;;;20.99;66.18;100333.69;5088309;28;20386;-53
2023/07/08 05:33:28;;;;;;;15.50;7.25;;;;;;;21.07;64.68;100333.34;5077575;28;20119;-55
2023/07/08 05:35:54;;;;;;;13.10;5.72;;;;;;;21.09;65.61;100332.03;5074641;28;20036;-54
2023/07/08 05:38:19;;;;;;;14.18;5.85;;;;;;;21.19;64.43;100325.16;5074420;28;20186;-54
2023/07/08 05:40:49;;;;;;;13.48;6.35;;;;;;;21.27;64.60;100333.72;5074369;28;20047;-56
2023/07/08 05:43:16;;;;;;;12.45;6.40;;;;;;;21.35;63.00;100330.66;5074489;28;20040;-56
2023/07/08 05:45:41;;;;;;;13.10;6.80;;;;;;;21.40;63.75;100330.75;5074475;28;20131;-57
2023/07/08 05:48:07;;;;;;;14.07;6.20;;;;;;;21.47;63.10;100329.78;5074479;28;20127;-58
2023/07/08 05:50:32;;;;;;;14.00;5.82;;;;;;;21.53;63.26;100328.81;5074309;28;20089;-56
2023/07/08 05:52:57;;;;;;;11.05;5.50;;;;;;;21.64;63.78;100317.09;5074407;28;20490;-54
2023/07/08 05:55:23;;;;;;;13.50;6.28;;;;;;;21.74;63.43;100317.28;5074176;28;20036;-59
2023/07/08 05:57:48;;;;;;;12.77;6.32;;;;;;;21.72;63.61;100327.53;5074307;28;20451;-60
2023/07/08 06:00:14;;;;;;;11.15;5.18;;;;;;;21.84;63.30;100330.16;5073831;28;20040;-61
2023/07/08 06:02:40;;;;;;;10.63;5.50;;;;;;;22.03;63.40;100330.75;5074184;28;20481;-58
2023/07/08 06:05:06;;;;;;;12.45;5.93;;;;;;;22.15;63.46;100335.06;5074269;28;20043;-60
2023/07/08 06:07:32;;;;;;;9.15;5.68;;;;;;;22.21;62.69;100328.66;5074160;28;20040;-60
2023/07/08 06:09:57;;;;;;;10.60;4.68;;;;;;;22.38;62.34;100344.91;5073782;28;20040;-60
2023/07/08 06:12:23;;;;;;;11.35;5.30;;;;;;;22.49;60.92;100348.59;5074280;28;20031;-60
2023/07/08 06:14:49;;;;;;;11.60;5.07;;;;;;;22.51;62.37;100360.03;5074212;28;20043;-59
2023/07/08 06:17:16;;;;;;;8.88;4.63;;;;;;;22.56;63.61;100357.41;5073845;28;20048;-58
2023/07/08 06:19:41;;;;;;;9.33;4.20;;;;;;;22.70;63.83;100368.72;5073694;28;20064;-60
2023/07/08 06:22:06;;;;;;;10.02;5.22;;;;;;;22.94;62.36;100353.84;5073709;28;20068;-59
2023/07/08 06:24:32;;;;;;;12.48;4.90;;;;;;;23.09;63.10;100366.81;5072557;28;20059;-60
2023/07/08 06:26:57;;;;;;;12.55;5.65;;;;;;;23.19;62.11;100360.69;5073798;28;20090;-58
2023/07/08 06:29:24;;;;;;;11.25;4.47;;;;;;;23.39;61.26;100358.19;5073425;28;20044;-59
2023/07/08 06:31:49;;;;;;;9.45;4.40;;;;;;;23.58;60.55;100355.94;5073609;28;20090;-59
2023/07/08 06:34:15;;;;;;;8.38;3.78;;;;;;;23.74;59.17;100357.78;5073695;28;20036;-57
2023/07/08 06:36:40;;;;;;;7.82;4.15;;;;;;;23.85;58.88;100368.75;5073534;28;20454;-60
2023/07/08 06:39:08;;;;;;;6.05;3.42;;;;;;;24.03;59.02;100371.09;5073029;28;20099;-59
2023/07/08 06:41:34;;;;;;;7.90;3.92;;;;;;;24.06;59.30;100378.72;5073747;28;20625;-60
2023/07/08 06:43:59;;;;;;;10.30;4.82;;;;;;;24.16;59.05;100376.09;5072428;28;20033;-60
2023/07/08 06:46:27;;;;;;;8.82;4.10;;;;;;;24.22;59.15;100380.50;5073287;28;20520;-60
2023/07/08 06:48:53;;;;;;;8.93;3.90;;;;;;;24.42;58.20;100385.31;5073086;28;20032;-60
2023/07/08 06:51:19;;;;;;;8.45;4.13;;;;;;;24.35;58.17;100379.28;5072830;28;20119;-59
2023/07/08 06:53:44;;;;;;;8.73;3.80;;;;;;;24.30;57.79;100379.19;5064503;28;20055;-55
2023/07/08 06:56:09;;;;;;;7.72;3.78;;;;;;;24.29;58.43;100388.44;5056032;28;20714;-58
2023/07/08 06:58:35;;;;;;;7.00;4.38;;;;;;;24.40;57.33;100387.50;5052676;28;20041;-64
2023/07/08 07:01:00;;;;;;;9.13;4.68;;;;;;;24.27;57.28;100383.28;5053202;28;20037;-55
2023/07/08 07:03:26;;;;;;;7.82;4.07;;;;;;;24.28;56.18;100386.81;5053090;28;20047;-57
2023/07/08 07:05:51;;;;;;;8.55;4.90;;;;;;;24.25;57.24;100382.69;5053248;28;20098;-58
2023/07/08 07:08:17;;;;;;;9.70;4.63;;;;;;;24.34;56.13;100383.09;5052743;28;20127;-57
2023/07/08 07:10:43;;;;;;;8.40;4.38;;;;;;;24.45;56.56;100379.38;5052825;28;20500;-55
2023/07/08 07:13:08;;;;;;;8.93;4.72;;;;;;;24.42;58.09;100381.78;5058563;28;20040;-64
2023/07/08 07:15:34;;;;;;;13.52;5.13;;;;;;;24.34;59.13;100374.91;5072719;28;20040;-64
2023/07/08 07:18:00;;;;;;;10.38;4.32;;;;;;;24.39;56.63;100379.56;5072779;28;20063;-65
2023/07/08 07:20:25;;;;;;;8.48;4.28;;;;;;;24.48;58.52;100375.28;5072261;28;20131;-65
2023/07/08 07:22:51;;;;;;;10.40;3.72;;;;;;;24.64;58.73;100366.13;5072379;28;20045;-66
2023/07/08 07:25:16;;;;;;;6.53;3.13;;;;;;;24.81;59.81;100372.22;5072587;28;20016;-66
2023/07/08 07:27:42;;;;;;;4.28;2.70;;;;;;;24.85;57.04;100370.63;5072622;28;20440;-66
2023/07/08 07:30:09;;;;;;;5.53;2.75;;;;;;;24.97;56.93;100377.72;5072273;28;20037;-66
2023/07/08 07:32:35;;;;;;;8.50;2.92;;;;;;;24.94;57.11;100367.38;5072520;28;20037;-66
2023/07/08 07:35:01;;;;;;;5.55;3.05;;;;;;;24.97;58.09;100380.47;5072497;28;20505;-65
2023/07/08 07:37:26;;;;;;;5.53;2.30;;;;;;;25.04;57.08;100373.75;5072151;28;20046;-65
2023/07/08 07:39:51;;;;;;;7.28;2.53;;;;;;;25.19;57.01;100374.88;5072072;28;20041;-65
2023/07/08 07:42:19;;;;;;;5.32;2.50;;;;;;;25.29;56.68;100378.44;5072384;28;20074;-64
2023/07/08 07:44:44;;;;;;;;;;;;;;;25.45;54.72;100382.06;5072746;28;20061;-63
2023/07/08 07:47:10;;;;;;;6.18;2.38;;;;;;;25.49;54.61;100380.41;5072289;28;20369;-63
2023/07/08 07:49:36;;;;;;;5.10;2.67;;;;;;;25.65;54.83;100381.28;5072015;28;20119;-64
2023/07/08 07:52:02;;;;;;;4.85;2.60;;;;;;;25.70;54.66;100375.84;5072146;28;20566;-63
2023/07/08 07:54:27;;;;;;;4.15;2.65;;;;;;;25.76;54.11;100372.06;5072236;28;20037;-64
2023/07/08 07:56:52;;;;;;;7.93;4.07;;;;;;;25.89;54.63;100377.00;5071864;28;20040;-64
2023/07/08 07:59:19;;;;;;;5.55;2.63;;;;;;;26.01;53.09;100373.16;5071820;28;20067;-64
2023/07/08 08:01:44;;;;;;;5.20;2.53;;;;;;;26.09;52.68;100359.00;5072266;28;20063;-64
2023/07/08 08:04:11;;;;;;;7.07;2.67;;;;;;;26.21;52.54;100373.16;5072186;28;20029;-64
2023/07/08 08:06:36;;;;;;;5.50;2.72;;;;;;;26.31;53.42;100366.88;5071902;28;20029;-64
2023/07/08 08:09:03;;;;;;;6.50;3.03;;;;;;;26.39;53.56;100369.06;5071803;28;20137;-64
2023/07/08 08:11:29;;;;;;;6.82;2.72;;;;;;;26.42;54.55;100374.84;5072150;28;20116;-64
2023/07/08 08:13:54;;;;;;;5.35;2.28;;;;;;;26.61;50.99;100372.34;5071999;28;20090;-64
2023/07/08 08:16:21;;;;;;;4.43;2.35;;;;;;;26.75;51.23;100378.06;5071820;28;20074;-63
2023/07/08 08:18:46;;;;;;;7.47;2.60;;;;;;;26.95;48.73;100385.38;5071674;28;20043;-63
2023/07/08 08:21:12;;;;;;;4.68;2.00;;;;;;;27.08;48.29;100392.19;5071621;28;20398;-63
2023/07/08 08:23:37;;;;;;;8.65;2.33;;;;;;;27.10;48.28;100384.50;5071860;28;20032;-63
2023/07/08 08:26:03;;;;;;;4.88;1.90;;;;;;;27.31;44.91;100375.13;5071715;28;20543;-64
2023/07/08 08:28:28;;;;;;;3.72;1.80;;;;;;;27.52;43.02;100384.88;5071473;28;20040;-64
2023/07/08 08:30:53;;;;;;;3.58;1.90;;;;;;;27.69;42.60;100398.19;5071745;28;20044;-64
2023/07/08 08:33:19;;;;;;;5.38;1.35;;;;;;;27.78;42.05;100384.75;5071698;28;20041;-64
2023/07/08 08:35:45;;;;;;;2.70;1.65;;;;;;;27.92;40.11;100395.88;5071623;28;20043;-64
2023/07/08 08:38:11;;;;;;;2.40;1.20;;;;;;;28.06;38.20;100391.38;5071650;28;20028;-63
2023/07/08 08:40:38;;;;;;;3.33;1.23;;;;;;;28.16;38.77;100404.16;5071428;28;20035;-63
2023/07/08 08:43:09;;;;;;;4.63;1.60;;;;;;;28.27;38.50;100406.53;5071681;28;20032;-64
2023/07/08 08:46:03;;;;;;;3.13;1.50;;;;;;;28.31;38.16;100391.19;5071757;28;20404;-64
2023/07/08 08:48:32;;;;;;;2.67;1.67;;;;;;;28.34;37.88;100398.81;5071490;28;20120;-62
2023/07/08 08:51:09;;;;;;;4.72;1.30;;;;;;;28.52;37.60;100399.22;5071476;28;20078;-64
2023/07/08 08:53:34;;;;;;;4.20;1.27;;;;;;;28.47;37.49;100402.00;5071707;28;20047;-63
2023/07/08 08:56:09;;;;;;;3.30;1.00;;;;;;;28.64;36.75;100391.44;5071551;28;20033;-64
2023/07/08 08:58:50;;;;;;;2.33;1.23;;;;;;;28.75;37.23;100390.19;5071195;28;20040;-63
2023/07/08 09:01:17;;;;;;;3.58;1.40;;;;;;;28.89;36.73;100396.63;5071502;28;20037;-61
2023/07/08 09:03:49;;;;;;;1.95;1.08;;;;;;;29.05;37.32;100396.47;5071561;28;20032;-62
2023/07/08 09:06:19;;;;;;;1.75;1.17;;;;;;;29.15;37.45;100401.84;5071415;28;20493;-63
2023/07/08 09:08:46;;;;;;;3.03;1.50;;;;;;;29.22;37.49;100387.78;5073949;28;20033;-63
2023/07/08 09:11:49;;;;;;;2.30;1.27;;;;;;;29.40;38.24;100396.00;5074996;28;20500;-62
2023/07/08 09:14:26;;;;;;;4.32;1.52;;;;;;;29.43;36.77;100400.94;5075123;28;20075;-64
2023/07/08 09:17:17;;;;;;;2.55;1.33;;;;;;;29.54;36.93;100392.56;5075031;28;20075;-64
2023/07/08 09:20:02;;;;;;;1.60;1.10;;;;;;;29.76;35.42;100390.06;5074720;28;20021;-63
2023/07/08 09:22:40;;;;;;;2.67;1.13;;;;;;;29.90;34.65;100382.72;5070720;28;20044;-63
2023/07/08 09:25:14;;;;;;;4.40;1.30;;;;;;;29.95;35.31;100388.13;5074962;28;20044;-64
2023/07/08 09:27:40;;;;;;;2.05;1.20;;;;;;;30.06;35.57;100368.72;5074812;28;20033;-62
2023/07/08 09:30:13;;;;;;;3.70;1.42;;;;;;;30.36;35.53;100379.22;5074519;28;20490;-61
2023/07/08 09:32:39;;;;;;;2.78;1.27;;;;;;;30.51;35.79;100380.88;5074675;28;20067;-63
2023/07/08 09:35:07;;;;;;;1.42;1.05;;;;;;;30.50;35.00;100396.53;5074733;28;20071;-63
2023/07/08 09:37:37;;;;;;;3.25;1.27;;;;;;;30.52;33.96;100385.28;5074681;28;20040;-62
2023/07/08 09:40:14;;;;;;;1.50;0.80;;;;;;;30.58;33.67;100385.97;5074420;28;20115;-62
2023/07/08 09:42:42;;;;;;;3.05;1.38;;;;;;;30.89;34.47;100387.06;5074690;28;20040;-63
2023/07/08 09:45:14;;;;;;;1.98;1.20;;;;;;;30.90;33.20;100382.38;5074475;28;20058;-62
2023/07/08 09:47:40;;;;;;;3.08;1.20;;;;;;;31.23;35.39;100383.06;5074365;28;20516;-64
2023/07/08 09:50:25;;;;;;;3.53;1.30;;;;;;;30.94;33.08;100384.22;5074198;28;20524;-63
2023/07/08 09:53:01;;;;;;;2.57;1.30;;;;;;;31.24;34.55;100384.75;5074541;28;20068;-63
2023/07/08 09:55:28;;;;;;;3.20;1.15;;;;;;;31.46;33.64;100376.53;5074237;28;20150;-63
2023/07/08 09:57:55;;;;;;;3.83;1.77;;;;;;;31.61;35.67;100381.69;5074383;28;20044;-62
2023/07/08 10:00:33;;;;;;;5.60;2.58;;;;;;;31.82;35.31;100375.72;5073972;28;20048;-62
2023/07/08 10:03:05;;;;;;;2.75;1.40;;;;;;;31.82;34.00;100379.31;5074279;28;20072;-64
2023/07/08 10:05:43;;;;;;;3.22;1.63;;;;;;;32.03;32.38;100371.38;5074192;28;20035;-63
2023/07/08 10:08:20;;;;;;;2.38;1.13;;;;;;;32.13;32.40;100368.34;5074194;28;20051;-63
2023/07/08 10:11:27;;;;;;;2.50;1.17;;;;;;;32.36;33.17;100368.34;5074031;28;20040;-62
2023/07/08 10:13:57;;;;;;;2.42;1.35;;;;;;;32.53;32.16;100375.88;5074158;28;20044;-64
2023/07/08 10:16:28;;;;;;;2.22;1.17;;;;;;;32.76;33.65;100369.19;5073968;28;20485;-63
2023/07/08 10:18:54;;;;;;;3.78;1.20;;;;;;;32.59;31.51;100366.34;5073546;28;20032;-63
2023/07/08 10:21:44;;;;;;;2.07;0.90;;;;;;;32.91;32.95;100376.25;5073904;28;20105;-63
2023/07/08 10:24:25;;;;;;;2.15;1.33;;;;;;;33.22;31.85;100376.97;5073933;28;20111;-63
2023/07/08 10:27:06;;;;;;;2.22;1.30;;;;;;;33.26;32.20;100373.59;5073887;28;20036;-64
2023/07/08 10:29:52;;;;;;;4.10;1.88;;;;;;;33.70;32.84;100380.78;5073531;28;20065;-63
2023/07/08 10:32:33;;;;;;;2.30;1.40;;;;;;;33.94;32.08;100374.81;5073614;28;20076;-64
2023/07/08 10:35:07;;;;;;;3.05;1.35;;;;;;;34.06;31.97;100374.94;5073841;28;20458;-63
2023/07/08 10:37:41;;;;;;;2.92;1.58;;;;;;;34.24;31.51;100379.31;5073805;28;20046;-63
2023/07/08 10:40:27;;;;;;;3.13;1.63;;;;;;;34.23;31.59;100376.84;5073337;28;20036;-64
2023/07/08 10:43:02;;;;;;;1.90;1.45;;;;;;;34.74;33.37;100383.41;5073667;28;20481;-63
2023/07/08 10:45:49;;;;;;;2.95;1.63;;;;;;;34.69;32.05;100378.03;5073460;28;20040;-63
2023/07/08 10:48:36;;;;;;;3.85;1.30;;;;;;;34.75;32.87;100379.47;5073246;28;20094;-63
2023/07/08 10:51:10;;;;;;;3.00;1.30;;;;;;;34.63;30.87;100380.19;5073320;28;20116;-63
2023/07/08 10:54:23;;;;;;;3.72;1.48;;;;;;;34.72;30.38;100382.94;5073408;28;20047;-63
2023/07/08 10:56:59;;;;;;;4.03;1.45;;;;;;;34.70;30.22;100386.03;5051002;28;20041;-63
2023/07/08 10:59:48;;;;;;;3.38;1.50;;;;;;;35.18;29.79;100384.81;5071587;28;20051;-63
2023/07/08 11:02:32;;;;;;;3.00;1.33;;;;;;;35.29;29.50;100382.50;5073377;28;20040;-62
2023/07/08 11:05:19;;;;;;;3.33;1.63;;;;;;;35.28;31.76;100394.72;5073063;28;20085;-62
2023/07/08 11:08:11;;;;;;;2.03;1.35;;;;;;;35.27;30.80;100380.03;5072968;28;20094;-62
2023/07/08 11:10:47;;;;;;;3.20;1.48;;;;;;;35.73;31.53;100382.97;5062254;28;20052;-64
2023/07/08 11:13:17;;;;;;;3.05;1.58;;;;;;;35.91;30.12;100381.72;5072909;28;20036;-64
2023/07/08 11:16:08;;;;;;;3.40;1.77;;;;;;;36.05;30.89;100389.72;5066128;28;20078;-63
2023/07/08 11:19:09;;;;;;;2.65;1.70;;;;;;;36.30;29.45;100385.06;5063702;28;20103;-64
2023/07/08 11:21:41;;;;;;;2.70;1.60;;;;;;;36.40;30.32;100388.25;5064761;28;20032;-63
2023/07/08 11:24:28;;;;;;;2.83;1.33;;;;;;;36.29;29.57;100381.50;5062917;28;20052;-63
2023/07/08 11:26:59;;;;;;;4.18;2.17;;;;;;;36.39;30.23;100388.63;5062355;28;20040;-61
2023/07/08 11:29:34;;;;;;;4.28;1.83;;;;;;;36.80;28.32;100381.25;5052926;28;20047;-61
2023/07/08 11:32:03;;;;;;;3.42;1.50;;;;;;;36.95;29.12;100381.41;5052003;28;20073;-61
2023/07/08 11:34:28;;;;;;;4.25;1.73;;;;;;;36.84;29.86;100379.38;5060408;28;20135;-62
2023/07/08 11:36:57;;;;;;;2.42;1.48;;;;;;;36.91;28.29;100374.13;5062611;28;20094;-61
2023/07/08 11:39:32;;;;;;;2.00;1.20;;;;;;;36.80;28.32;100384.84;5060720;28;20036;-63
2023/07/08 11:42:13;;;;;;;2.67;1.70;;;;;;;36.75;29.65;100373.97;5060977;28;20589;-63
2023/07/08 11:44:47;;;;;;;3.60;1.70;;;;;;;36.84;28.36;100366.34;5061072;28;20116;-62
2023/07/08 11:47:20;;;;;;;3.92;1.58;;;;;;;37.04;27.29;100369.34;5061282;28;20119;-62
2023/07/08 11:49:48;;;;;;;4.50;1.48;;;;;;;36.98;26.52;100357.69;5061471;28;20032;-61
2023/07/08 11:52:18;;;;;;;2.72;1.52;;;;;;;37.12;26.84;100357.34;5060561;28;20044;-62
2023/07/08 11:54:48;;;;;;;2.25;1.55;;;;;;;37.37;27.54;100349.81;5061566;28;20408;-61
2023/07/08 11:57:23;;;;;;;3.15;1.70;;;;;;;37.79;27.21;100352.19;5062348;28;20021;-64
2023/07/08 12:00:13;;;;;;;2.42;1.38;;;;;;;38.00;26.03;100347.25;5061035;28;20025;-63
2023/07/08 12:02:54;;;;;;;3.17;1.50;;;;;;;37.86;26.70;100344.88;5061137;28;20064;-62
2023/07/08 12:05:30;;;;;;;4.55;1.80;;;;;;;37.93;27.80;100335.94;5060964;28;20414;-62
2023/07/08 12:08:01;;;;;;;7.50;1.75;;;;;;;38.21;26.35;100338.66;5059261;28;20096;-61
2023/07/08 12:10:30;;;;;;;2.17;1.40;;;;;;;38.32;27.97;100334.22;5059792;28;20052;-63
2023/07/08 12:12:55;;;;;;;4.93;2.20;;;;;;;38.79;25.85;100330.63;5060676;28;20033;-63
2023/07/08 12:15:30;;;;;;;2.43;1.40;;;;;;;38.10;25.67;100337.59;5061038;28;20448;-63
2023/07/08 12:18:01;;;;;;;2.67;1.40;;;;;;;38.21;25.13;100333.94;5062194;28;20037;-63
2023/07/08 12:20:36;;;;;;;2.00;1.55;;;;;;;38.33;25.74;100333.06;5053276;28;20095;-62
2023/07/08 12:23:02;;;;;;;3.87;1.93;;;;;;;38.28;26.27;100330.56;5051661;28;20076;-63
2023/07/08 12:25:34;;;;;;;3.45;1.48;;;;;;;38.66;25.64;100334.66;5051633;28;20271;-64
2023/07/08 12:28:00;;;;;;;3.28;1.63;;;;;;;39.00;26.50;100328.38;5051089;28;20068;-63
2023/07/08 12:30:27;;;;;;;;;;;;;;;38.46;24.89;100333.78;5050604;28;20045;-63
2023/07/08 12:32:55;;;;;;;3.60;1.80;;;;;;;38.48;25.64;100323.13;5051438;28;19920;-63
2023/07/08 12:35:32;;;;;;;3.10;1.52;;;;;;;38.95;25.40;100331.44;5033922;28;20066;-62
2023/07/08 12:38:01;;;;;;;3.80;1.35;;;;;;;38.34;24.98;100322.75;5051333;28;20044;-62
2023/07/08 12:40:28;;;;;;;4.18;1.85;;;;;;;38.26;25.24;100328.13;5050596;28;20393;-62
2023/07/08 12:42:55;;;;;;;3.10;2.00;;;;;;;37.94;25.73;100327.22;5052719;28;20487;-62
2023/07/08 12:45:23;;;;;;;3.13;1.77;;;;;;;38.34;25.20;100317.97;5055465;28;20033;-61
2023/07/08 12:47:49;;;;;;;3.50;2.08;;;;;;;38.41;25.43;100323.75;5055036;28;20128;-62
2023/07/08 12:50:15;;;;;;;4.32;1.90;;;;;;;38.71;25.80;100312.97;5054565;28;20103;-62
2023/07/08 12:52:44;;;;;;;3.10;1.70;;;;;;;38.89;25.50;100320.94;5054876;28;20398;-63
2023/07/08 12:55:11;;;;;;;4.88;1.90;;;;;;;39.44;25.33;100311.41;5055198;28;20051;-63
2023/07/08 12:57:39;;;;;;;3.22;2.00;;;;;;;39.30;26.00;100317.50;5054892;28;20036;-64
2023/07/08 13:00:06;;;;;;;3.38;1.77;;;;;;;39.71;24.88;100314.38;5054239;28;20068;-62
2023/07/08 13:02:32;;;;;;;3.88;2.22;;;;;;;39.85;24.63;100314.66;5053885;28;20057;-63
2023/07/08 13:05:00;;;;;;;4.30;1.90;;;;;;;39.34;24.33;100312.03;5055192;28;20482;-63
2023/07/08 13:07:35;;;;;;;3.30;1.73;;;;;;;38.92;23.88;100309.88;5054712;28;20048;-62
2023/07/08 13:10:02;;;;;;;3.30;1.67;;;;;;;39.01;23.76;100310.50;5054085;28;20036;-62
2023/07/08 13:12:27;;;;;;;4.07;1.88;;;;;;;39.56;23.56;100311.28;5054625;28;20367;-63
2023/07/08 13:14:57;;;;;;;3.58;1.73;;;;;;;39.58;23.76;100306.16;5054785;28;20044;-63
2023/07/08 13:17:23;;;;;;;5.10;2.22;;;;;;;39.69;23.93;100311.16;5054495;28;20592;-64
2023/07/08 13:19:48;;;;;;;3.50;2.22;;;;;;;39.15;24.79;100310.03;5054019;28;20145;-63
2023/07/08 13:22:18;;;;;;;3.35;1.85;;;;;;;38.62;26.18;100295.63;5054632;28;20044;-62
2023/07/08 13:24:44;;;;;;;3.00;2.00;;;;;;;38.21;24.86;100302.50;5054674;28;20040;-62
2023/07/08 13:27:20;;;;;;;5.10;2.25;;;;;;;37.89;27.40;100298.91;5053909;28;20124;-63
2023/07/08 13:29:45;;;;;;;5.00;2.03;;;;;;;37.27;25.82;100306.63;5053922;28;20072;-64
2023/07/08 13:32:11;;;;;;;3.27;2.10;;;;;;;36.83;26.99;100308.41;5053102;28;20069;-62
2023/07/08 13:34:37;;;;;;;5.47;1.80;;;;;;;36.41;27.31;100298.38;5019728;28;20482;-61
2023/07/08 13:37:02;;;;;;;3.37;1.80;;;;;;;36.08;28.17;100301.19;5071823;28;20046;-62
2023/07/08 13:39:33;;;;;;;3.97;2.13;;;;;;;34.97;28.15;100293.47;5085794;28;20286;-62
2023/07/08 13:42:00;;;;;;;5.63;2.10;;;;;;;34.73;29.35;100294.06;5092031;28;20077;-63
2023/07/08 13:44:26;;;;;;;4.57;1.98;;;;;;;34.42;28.83;100291.63;5061477;28;20043;-62
2023/07/08 13:46:54;;;;;;;3.78;2.60;;;;;;;34.69;29.71;100293.13;5087165;28;20032;-63
2023/07/08 13:49:27;;;;;;;3.50;1.95;;;;;;;34.68;30.20;100296.22;5085288;28;20047;-63
2023/07/08 13:52:08;;;;;;;4.18;1.90;;;;;;;34.83;30.59;100294.84;5078466;28;20707;-63
2023/07/08 13:55:02;;;;;;;3.08;1.90;;;;;;;34.90;29.36;100290.41;5063411;28;20044;-63
2023/07/08 13:57:33;;;;;;;4.18;2.13;;;;;;;34.83;29.91;100290.13;5081470;28;20382;-63
2023/07/08 13:59:59;;;;;;;4.55;2.75;;;;;;;34.72;29.48;100286.94;5090621;28;20036;-63
2023/07/08 14:02:30;;;;;;;5.33;3.10;;;;;;;34.77;30.79;100286.75;5077579;28;20039;-63
2023/07/08 14:04:58;;;;;;;6.05;2.53;;;;;;;34.70;30.69;100282.88;5086277;28;20040;-63
2023/07/08 14:07:27;;;;;;;4.40;2.95;;;;;;;34.61;29.62;100277.38;5085762;28;20097;-62
2023/07/08 14:09:54;;;;;;;4.50;2.10;;;;;;;33.99;29.49;100273.22;5078062;28;20041;-64
2023/07/08 14:12:20;;;;;;;3.05;1.70;;;;;;;33.86;29.31;100271.44;5090311;28;20045;-64
2023/07/08 14:14:45;;;;;;;4.28;2.22;;;;;;;33.83;29.61;100266.56;5080283;28;20051;-63
2023/07/08 14:17:18;;;;;;;5.53;2.40;;;;;;;34.05;30.56;100265.56;5083831;28;20032;-63
2023/07/08 14:19:44;;;;;;;4.57;2.38;;;;;;;34.13;31.11;100269.44;5088044;28;20047;-62
2023/07/08 14:22:15;;;;;;;6.53;3.57;;;;;;;34.07;31.22;100268.00;5075875;28;20028;-63
2023/07/08 14:24:42;;;;;;;4.50;2.10;;;;;;;33.92;29.40;100266.59;5088137;28;20043;-62
2023/07/08 14:27:11;;;;;;;5.28;2.10;;;;;;;33.73;29.47;100256.69;5082942;28;20044;-64
2023/07/08 14:29:38;;;;;;;6.03;2.63;;;;;;;33.44;29.63;100262.06;5079751;28;20039;-62
2023/07/08 14:32:04;;;;;;;4.68;2.03;;;;;;;33.33;30.31;100264.34;5073974;28;20044;-65
2023/07/08 14:34:29;;;;;;;4.40;2.30;;;;;;;33.56;30.85;100264.97;5089452;28;20398;-63
2023/07/08 14:36:55;;;;;;;5.07;1.90;;;;;;;32.93;30.35;100274.69;5081096;28;20039;-63
2023/07/08 14:39:20;;;;;;;3.30;2.43;;;;;;;33.06;29.62;100265.47;5081957;28;20063;-70
2023/07/08 14:41:48;;;;;;;3.50;1.80;;;;;;;32.84;30.78;100262.78;5088128;28;20106;-62
2023/07/08 14:44:21;;;;;;;3.25;2.00;;;;;;;33.06;30.71;100250.84;5076712;28;20043;-64
2023/07/08 14:46:46;;;;;;;3.95;2.13;;;;;;;33.26;30.94;100257.69;5086603;28;20032;-64
2023/07/08 14:49:16;;;;;;;6.13;2.40;;;;;;;33.27;30.81;100260.13;5083046;28;20042;-64
2023/07/08 14:51:42;;;;;;;3.15;2.00;;;;;;;33.16;29.97;100251.34;5078934;28;20087;-64
2023/07/08 14:54:07;;;;;;;4.13;2.27;;;;;;;33.27;31.02;100251.84;5089804;28;20036;-65
2023/07/08 14:56:33;;;;;;;4.27;2.10;;;;;;;33.38;31.27;100257.81;5077595;28;20446;-64
2023/07/08 14:58:58;;;;;;;3.13;1.97;;;;;;;33.38;30.68;100247.59;5084480;28;20044;-62
2023/07/08 15:01:26;;;;;;;3.60;2.03;;;;;;;33.37;31.53;100253.44;5084802;28;20056;-62
2023/07/08 15:03:51;;;;;;;4.10;2.13;;;;;;;33.37;30.66;100256.19;5077316;28;20087;-63
2023/07/08 15:06:17;;;;;;;4.33;2.27;;;;;;;33.30;30.62;100253.13;5088491;28;20039;-63
2023/07/08 15:08:43;;;;;;;3.50;2.40;;;;;;;33.44;30.92;100257.34;5072736;28;20123;-64
2023/07/08 15:11:11;;;;;;;5.63;2.07;;;;;;;33.51;31.17;100261.56;5072758;28;20033;-63
2023/07/08 15:13:38;;;;;;;2.70;1.83;;;;;;;33.49;30.61;100259.16;5072793;28;20044;-64
2023/07/08 15:16:04;;;;;;;5.05;2.10;;;;;;;33.41;30.73;100259.97;5072655;28;20094;-63
2023/07/08 15:18:29;;;;;;;4.43;2.10;;;;;;;33.47;31.92;100256.72;5072404;28;20037;-64
2023/07/08 15:20:55;;;;;;;4.23;2.23;;;;;;;33.53;32.24;100254.59;5072637;28;20340;-64
2023/07/08 15:23:20;;;;;;;4.33;2.90;;;;;;;33.41;30.82;100243.41;5072706;28;20050;-63
2023/07/08 15:25:47;;;;;;;4.10;1.97;;;;;;;33.46;30.70;100249.59;5072524;28;20532;-63
2023/07/08 15:28:16;;;;;;;;;;;;;;;33.45;31.43;100244.38;5073033;28;20045;-63
2023/07/08 15:30:41;;;;;;;5.40;2.25;;;;;;;33.50;31.18;100246.97;5072497;28;20010;-63
2023/07/08 15:33:12;;;;;;;3.20;2.20;;;;;;;33.54;31.12;100249.91;5072604;28;20679;-63
2023/07/08 15:35:37;;;;;;;5.65;2.50;;;;;;;33.51;31.42;100250.53;5072328;28;20512;-63
2023/07/08 15:38:04;;;;;;;4.73;2.10;;;;;;;33.19;30.61;100244.34;5072440;28;20071;-64
2023/07/08 15:40:34;;;;;;;4.70;2.28;;;;;;;33.24;31.04;100237.84;5071992;28;20075;-63
2023/07/08 15:43:02;;;;;;;3.20;2.03;;;;;;;33.19;30.35;100233.31;5072344;28;20028;-63
2023/07/08 15:45:34;;;;;;;3.00;2.05;;;;;;;33.24;30.71;100235.09;5072537;28;20385;-63
2023/07/08 15:47:59;;;;;;;3.58;1.80;;;;;;;33.15;31.67;100235.91;5072316;28;20037;-64
2023/07/08 15:50:27;;;;;;;5.00;2.07;;;;;;;33.28;30.77;100234.13;5071992;28;20081;-63
2023/07/08 15:52:53;;;;;;;4.53;1.90;;;;;;;33.21;31.06;100237.38;5072139;28;20464;-63
2023/07/08 15:55:26;;;;;;;3.65;2.30;;;;;;;33.19;30.74;100244.34;5072099;28;20036;-64
2023/07/08 15:58:04;;;;;;;3.83;2.50;;;;;;;33.15;30.88;100243.38;5072254;28;20044;-63